sensor_id;sensor_type;location;lat;lon;timestamp;temperature;humidity
29917;DHT22;16786;49.466;11.068;2022-08-01T00:00:46;21.40;99.90
29917;DHT22;16786;49.466;11.068;2022-08-01T00:03:13;21.30;99.90
29917;DHT22;16786;49.466;11.068;2022-08-01T00:05:41;21.20;99.90
29917;DHT22;16786;49.466;11.068;2022-08-01T00:08:10;21.30;99.90
29917;DHT22;16786;49.466;11.068;2022-08-01T00:10:37;21.30;99.90
29917;DHT22;16786;49.466;11.068;2022-08-01T00:13:05;21.20;99.90
29917;DHT22;16786;49.466;11.068;2022-08-01T00:15:32;21.10;99.90
29917;DHT22;16786;49.466;11.068;2022-08-01T00:18:00;21.10;99.90
29917;DHT22;16786;49.466;11.068;2022-08-01T00:20:28;21.10;99.90
29917;DHT22;16786;49.466;11.068;2022-08-01T00:22:55;21.00;99.90
29917;DHT22;16786;49.466;11.068;2022-08-01T00:25:23;20.90;99.90
29917;DHT22;16786;49.466;11.068;2022-08-01T00:28:00;20.90;99.90
29917;DHT22;16786;49.466;11.068;2022-08-01T00:30:27;20.80;99.90
29917;DHT22;16786;49.466;11.068;2022-08-01T00:32:54;20.80;99.90
29917;DHT22;16786;49.466;11.068;2022-08-01T00:35:21;20.80;99.90
29917;DHT22;16786;49.466;11.068;2022-08-01T00:37:49;20.70;99.90
29917;DHT22;16786;49.466;11.068;2022-08-01T00:40:16;20.70;99.90
29917;DHT22;16786;49.466;11.068;2022-08-01T00:42:43;20.70;99.90
29917;DHT22;16786;49.466;11.068;2022-08-01T00:45:11;20.70;99.90
29917;DHT22;16786;49.466;11.068;2022-08-01T00:47:38;20.60;99.90
29917;DHT22;16786;49.466;11.068;2022-08-01T00:50:07;20.60;99.90
29917;DHT22;16786;49.466;11.068;2022-08-01T00:52:34;20.60;99.90
29917;DHT22;16786;49.466;11.068;2022-08-01T00:55:02;20.50;99.90
29917;DHT22;16786;49.466;11.068;2022-08-01T00:57:30;20.50;99.90
29917;DHT22;16786;49.466;11.068;2022-08-01T01:00:17;20.50;99.90
29917;DHT22;16786;49.466;11.068;2022-08-01T01:02:53;20.50;99.90
29917;DHT22;16786;49.466;11.068;2022-08-01T01:05:21;20.40;99.90
29917;DHT22;16786;49.466;11.068;2022-08-01T01:07:56;20.40;99.90
29917;DHT22;16786;49.466;11.068;2022-08-01T01:10:35;20.30;99.90
29917;DHT22;16786;49.466;11.068;2022-08-01T01:13:18;20.30;99.90
29917;DHT22;16786;49.466;11.068;2022-08-01T01:15:51;20.30;99.90
29917;DHT22;16786;49.466;11.068;2022-08-01T01:18:35;20.30;99.90
29917;DHT22;16786;49.466;11.068;2022-08-01T01:34:57;20.10;99.90
29917;DHT22;16786;49.466;11.068;2022-08-01T01:37:27;20.00;99.90
29917;DHT22;16786;49.466;11.068;2022-08-01T01:39:56;20.00;99.90
29917;DHT22;16786;49.466;11.068;2022-08-01T01:42:25;20.00;99.90
29917;DHT22;16786;49.466;11.068;2022-08-01T01:44:54;19.90;99.90
29917;DHT22;16786;49.466;11.068;2022-08-01T01:47:23;19.90;99.90
29917;DHT22;16786;49.466;11.068;2022-08-01T01:49:53;19.90;99.90
29917;DHT22;16786;49.466;11.068;2022-08-01T01:52:22;19.90;99.90
29917;DHT22;16786;49.466;11.068;2022-08-01T01:54:51;19.90;99.90
29917;DHT22;16786;49.466;11.068;2022-08-01T01:57:20;19.90;99.90
29917;DHT22;16786;49.466;11.068;2022-08-01T01:59:49;19.90;99.90
29917;DHT22;16786;49.466;11.068;2022-08-01T02:02:18;19.90;99.90
29917;DHT22;16786;49.466;11.068;2022-08-01T02:04:48;19.90;99.90
29917;DHT22;16786;49.466;11.068;2022-08-01T02:07:20;19.90;99.90
29917;DHT22;16786;49.466;11.068;2022-08-01T02:09:49;19.90;99.90
29917;DHT22;16786;49.466;11.068;2022-08-01T02:12:19;19.90;99.90
29917;DHT22;16786;49.466;11.068;2022-08-01T02:14:50;19.90;99.90
29917;DHT22;16786;49.466;11.068;2022-08-01T02:17:20;19.90;99.90
29917;DHT22;16786;49.466;11.068;2022-08-01T02:19:48;19.90;99.90
29917;DHT22;16786;49.466;11.068;2022-08-01T02:22:40;19.90;99.90
29917;DHT22;16786;49.466;11.068;2022-08-01T02:25:29;19.80;99.90
29917;DHT22;16786;49.466;11.068;2022-08-01T02:28:03;19.80;99.90
29917;DHT22;16786;49.466;11.068;2022-08-01T02:30:34;19.80;99.90
29917;DHT22;16786;49.466;11.068;2022-08-01T02:33:44;19.80;99.90
29917;DHT22;16786;49.466;11.068;2022-08-01T02:36:11;19.80;99.90
29917;DHT22;16786;49.466;11.068;2022-08-01T02:38:58;19.70;99.90
29917;DHT22;16786;49.466;11.068;2022-08-01T02:41:27;19.70;99.90
29917;DHT22;16786;49.466;11.068;2022-08-01T02:43:59;19.70;99.90
29917;DHT22;16786;49.466;11.068;2022-08-01T02:47:00;19.70;99.90
29917;DHT22;16786;49.466;11.068;2022-08-01T02:49:35;19.60;99.90
29917;DHT22;16786;49.466;11.068;2022-08-01T02:52:08;19.60;99.90
29917;DHT22;16786;49.466;11.068;2022-08-01T02:54:37;19.60;99.90
29917;DHT22;16786;49.466;11.068;2022-08-01T02:57:08;19.50;99.90
29917;DHT22;16786;49.466;11.068;2022-08-01T02:59:40;19.50;99.90
29917;DHT22;16786;49.466;11.068;2022-08-01T03:02:12;19.40;99.90
29917;DHT22;16786;49.466;11.068;2022-08-01T03:04:41;19.30;99.90
29917;DHT22;16786;49.466;11.068;2022-08-01T03:07:11;19.30;99.90
29917;DHT22;16786;49.466;11.068;2022-08-01T03:09:43;19.30;99.90
29917;DHT22;16786;49.466;11.068;2022-08-01T03:12:13;19.30;99.90
29917;DHT22;16786;49.466;11.068;2022-08-01T03:14:43;19.20;99.90
29917;DHT22;16786;49.466;11.068;2022-08-01T03:17:15;19.20;99.90
29917;DHT22;16786;49.466;11.068;2022-08-01T03:19:45;19.20;99.90
29917;DHT22;16786;49.466;11.068;2022-08-01T03:22:15;19.20;99.90
29917;DHT22;16786;49.466;11.068;2022-08-01T03:24:46;19.20;99.90
29917;DHT22;16786;49.466;11.068;2022-08-01T03:27:21;19.20;99.90
29917;DHT22;16786;49.466;11.068;2022-08-01T03:29:50;19.20;99.90
29917;DHT22;16786;49.466;11.068;2022-08-01T03:32:19;19.20;99.90
29917;DHT22;16786;49.466;11.068;2022-08-01T03:34:47;19.20;99.90
29917;DHT22;16786;49.466;11.068;2022-08-01T03:37:23;19.20;99.90
29917;DHT22;16786;49.466;11.068;2022-08-01T03:39:55;19.20;99.90
29917;DHT22;16786;49.466;11.068;2022-08-01T03:42:31;19.20;99.90
29917;DHT22;16786;49.466;11.068;2022-08-01T03:45:04;19.20;99.90
29917;DHT22;16786;49.466;11.068;2022-08-01T03:47:43;19.20;99.90
29917;DHT22;16786;49.466;11.068;2022-08-01T03:50:11;19.20;99.90
29917;DHT22;16786;49.466;11.068;2022-08-01T03:52:39;19.10;99.90
29917;DHT22;16786;49.466;11.068;2022-08-01T03:55:09;19.20;99.90
29917;DHT22;16786;49.466;11.068;2022-08-01T03:57:38;19.20;99.90
29917;DHT22;16786;49.466;11.068;2022-08-01T04:00:07;19.20;99.90
29917;DHT22;16786;49.466;11.068;2022-08-01T04:02:39;19.20;99.90
29917;DHT22;16786;49.466;11.068;2022-08-01T04:05:07;19.20;99.90
29917;DHT22;16786;49.466;11.068;2022-08-01T04:07:37;19.20;99.90
29917;DHT22;16786;49.466;11.068;2022-08-01T04:10:07;19.30;99.90
29917;DHT22;16786;49.466;11.068;2022-08-01T04:12:35;19.30;99.90
29917;DHT22;16786;49.466;11.068;2022-08-01T04:15:03;19.30;99.90
29917;DHT22;16786;49.466;11.068;2022-08-01T04:17:31;19.40;99.90
29917;DHT22;16786;49.466;11.068;2022-08-01T04:19:58;19.40;99.90
29917;DHT22;16786;49.466;11.068;2022-08-01T04:22:26;19.50;99.90
29917;DHT22;16786;49.466;11.068;2022-08-01T04:24:56;19.50;99.90
29917;DHT22;16786;49.466;11.068;2022-08-01T04:27:30;19.50;99.90
29917;DHT22;16786;49.466;11.068;2022-08-01T04:30:36;19.60;99.90
29917;DHT22;16786;49.466;11.068;2022-08-01T04:33:06;19.60;99.90
29917;DHT22;16786;49.466;11.068;2022-08-01T04:35:36;19.80;99.90
29917;DHT22;16786;49.466;11.068;2022-08-01T04:38:26;19.80;99.90
29917;DHT22;16786;49.466;11.068;2022-08-01T04:40:57;19.90;99.90
29917;DHT22;16786;49.466;11.068;2022-08-01T04:43:34;20.00;99.90
29917;DHT22;16786;49.466;11.068;2022-08-01T04:46:02;20.00;99.90
29917;DHT22;16786;49.466;11.068;2022-08-01T04:48:32;20.20;99.90
29917;DHT22;16786;49.466;11.068;2022-08-01T04:51:01;20.30;99.90
29917;DHT22;16786;49.466;11.068;2022-08-01T04:53:28;20.40;99.90
29917;DHT22;16786;49.466;11.068;2022-08-01T04:55:56;20.50;99.90
29917;DHT22;16786;49.466;11.068;2022-08-01T04:58:23;20.50;99.90
29917;DHT22;16786;49.466;11.068;2022-08-01T05:00:50;20.60;99.90
29917;DHT22;16786;49.466;11.068;2022-08-01T05:03:18;20.70;99.90
29917;DHT22;16786;49.466;11.068;2022-08-01T05:05:45;20.80;99.90
29917;DHT22;16786;49.466;11.068;2022-08-01T05:08:13;20.70;99.90
29917;DHT22;16786;49.466;11.068;2022-08-01T05:10:40;20.80;99.90
29917;DHT22;16786;49.466;11.068;2022-08-01T05:13:08;20.90;99.90
29917;DHT22;16786;49.466;11.068;2022-08-01T05:15:36;20.90;99.90
29917;DHT22;16786;49.466;11.068;2022-08-01T05:18:06;20.90;99.90
29917;DHT22;16786;49.466;11.068;2022-08-01T05:20:35;21.00;99.90
29917;DHT22;16786;49.466;11.068;2022-08-01T05:23:04;21.10;99.90
29917;DHT22;16786;49.466;11.068;2022-08-01T05:25:33;21.10;99.90
29917;DHT22;16786;49.466;11.068;2022-08-01T05:28:20;21.10;99.90
29917;DHT22;16786;49.466;11.068;2022-08-01T05:30:48;21.20;99.90
29917;DHT22;16786;49.466;11.068;2022-08-01T05:33:15;21.20;99.90
29917;DHT22;16786;49.466;11.068;2022-08-01T05:35:42;21.40;99.90
29917;DHT22;16786;49.466;11.068;2022-08-01T05:38:15;21.50;99.90
29917;DHT22;16786;49.466;11.068;2022-08-01T05:40:42;21.60;99.90
29917;DHT22;16786;49.466;11.068;2022-08-01T05:43:10;21.50;99.90
29917;DHT22;16786;49.466;11.068;2022-08-01T05:45:37;21.60;99.90
29917;DHT22;16786;49.466;11.068;2022-08-01T05:48:04;21.60;99.90
29917;DHT22;16786;49.466;11.068;2022-08-01T05:50:33;21.60;99.90
29917;DHT22;16786;49.466;11.068;2022-08-01T05:53:00;21.60;99.90
29917;DHT22;16786;49.466;11.068;2022-08-01T05:55:29;21.60;99.90
29917;DHT22;16786;49.466;11.068;2022-08-01T05:57:57;21.60;99.90
29917;DHT22;16786;49.466;11.068;2022-08-01T06:00:24;21.70;99.90
29917;DHT22;16786;49.466;11.068;2022-08-01T06:02:52;21.80;99.90
29917;DHT22;16786;49.466;11.068;2022-08-01T06:05:19;21.80;99.90
29917;DHT22;16786;49.466;11.068;2022-08-01T06:07:47;21.80;99.90
29917;DHT22;16786;49.466;11.068;2022-08-01T06:10:14;21.90;99.90
29917;DHT22;16786;49.466;11.068;2022-08-01T06:12:41;22.10;99.90
29917;DHT22;16786;49.466;11.068;2022-08-01T06:15:10;22.20;99.90
29917;DHT22;16786;49.466;11.068;2022-08-01T06:17:37;22.20;99.90
29917;DHT22;16786;49.466;11.068;2022-08-01T06:20:06;22.30;99.90
29917;DHT22;16786;49.466;11.068;2022-08-01T06:22:34;22.40;99.90
29917;DHT22;16786;49.466;11.068;2022-08-01T06:25:01;22.30;99.90
29917;DHT22;16786;49.466;11.068;2022-08-01T06:27:29;22.30;99.90
29917;DHT22;16786;49.466;11.068;2022-08-01T06:29:56;22.30;99.90
29917;DHT22;16786;49.466;11.068;2022-08-01T06:32:24;22.30;99.90
29917;DHT22;16786;49.466;11.068;2022-08-01T06:34:54;22.30;99.90
29917;DHT22;16786;49.466;11.068;2022-08-01T06:37:22;22.30;99.90
29917;DHT22;16786;49.466;11.068;2022-08-01T06:39:50;22.40;99.90
29917;DHT22;16786;49.466;11.068;2022-08-01T06:42:17;22.50;99.90
29917;DHT22;16786;49.466;11.068;2022-08-01T06:44:45;22.40;99.90
29917;DHT22;16786;49.466;11.068;2022-08-01T06:47:12;22.60;99.90
29917;DHT22;16786;49.466;11.068;2022-08-01T06:49:40;22.70;99.90
29917;DHT22;16786;49.466;11.068;2022-08-01T06:52:07;22.70;99.90
29917;DHT22;16786;49.466;11.068;2022-08-01T06:54:35;22.70;99.90
29917;DHT22;16786;49.466;11.068;2022-08-01T06:57:06;22.80;99.90
29917;DHT22;16786;49.466;11.068;2022-08-01T06:59:33;22.70;99.90
29917;DHT22;16786;49.466;11.068;2022-08-01T07:02:00;22.70;99.90
29917;DHT22;16786;49.466;11.068;2022-08-01T07:04:28;22.80;99.90
29917;DHT22;16786;49.466;11.068;2022-08-01T07:06:57;22.90;99.90
29917;DHT22;16786;49.466;11.068;2022-08-01T07:09:24;23.10;99.90
29917;DHT22;16786;49.466;11.068;2022-08-01T07:11:52;23.20;99.90
29917;DHT22;16786;49.466;11.068;2022-08-01T07:14:21;23.30;99.90
29917;DHT22;16786;49.466;11.068;2022-08-01T07:16:48;23.20;99.90
29917;DHT22;16786;49.466;11.068;2022-08-01T07:19:16;23.50;99.90
29917;DHT22;16786;49.466;11.068;2022-08-01T07:21:44;23.30;99.90
29917;DHT22;16786;49.466;11.068;2022-08-01T07:24:16;23.40;99.90
29917;DHT22;16786;49.466;11.068;2022-08-01T07:26:48;23.50;99.90
29917;DHT22;16786;49.466;11.068;2022-08-01T07:29:22;23.60;99.90
29917;DHT22;16786;49.466;11.068;2022-08-01T07:31:50;23.50;99.90
29917;DHT22;16786;49.466;11.068;2022-08-01T07:34:17;23.50;99.90
29917;DHT22;16786;49.466;11.068;2022-08-01T07:36:45;23.50;99.90
29917;DHT22;16786;49.466;11.068;2022-08-01T07:39:13;23.40;99.90
29917;DHT22;16786;49.466;11.068;2022-08-01T07:41:40;23.70;99.90
29917;DHT22;16786;49.466;11.068;2022-08-01T07:44:27;23.90;99.90
29917;DHT22;16786;49.466;11.068;2022-08-01T07:46:55;24.10;99.90
29917;DHT22;16786;49.466;11.068;2022-08-01T07:49:22;24.30;99.90
29917;DHT22;16786;49.466;11.068;2022-08-01T07:51:49;24.50;99.90
29917;DHT22;16786;49.466;11.068;2022-08-01T07:54:33;24.70;99.90
29917;DHT22;16786;49.466;11.068;2022-08-01T07:57:02;25.00;99.90
29917;DHT22;16786;49.466;11.068;2022-08-01T07:59:30;24.70;99.90
29917;DHT22;16786;49.466;11.068;2022-08-01T08:01:57;24.50;99.90
29917;DHT22;16786;49.466;11.068;2022-08-01T08:04:26;24.50;99.90
29917;DHT22;16786;49.466;11.068;2022-08-01T08:06:54;24.30;99.90
29917;DHT22;16786;49.466;11.068;2022-08-01T08:09:21;24.20;99.90
29917;DHT22;16786;49.466;11.068;2022-08-01T08:11:50;24.00;99.90
29917;DHT22;16786;49.466;11.068;2022-08-01T08:14:18;24.10;99.90
29917;DHT22;16786;49.466;11.068;2022-08-01T08:16:45;23.80;99.90
29917;DHT22;16786;49.466;11.068;2022-08-01T08:19:13;23.70;99.90
29917;DHT22;16786;49.466;11.068;2022-08-01T08:21:41;23.90;99.90
29917;DHT22;16786;49.466;11.068;2022-08-01T08:24:09;24.10;99.90
29917;DHT22;16786;49.466;11.068;2022-08-01T08:26:55;24.00;99.90
29917;DHT22;16786;49.466;11.068;2022-08-01T08:29:24;23.90;99.90
29917;DHT22;16786;49.466;11.068;2022-08-01T08:31:53;24.00;99.90
29917;DHT22;16786;49.466;11.068;2022-08-01T08:34:24;24.30;99.90
29917;DHT22;16786;49.466;11.068;2022-08-01T08:36:51;24.50;99.90
29917;DHT22;16786;49.466;11.068;2022-08-01T08:39:19;24.70;99.90
29917;DHT22;16786;49.466;11.068;2022-08-01T08:41:47;24.80;99.90
29917;DHT22;16786;49.466;11.068;2022-08-01T08:44:17;24.70;99.90
29917;DHT22;16786;49.466;11.068;2022-08-01T08:46:46;25.10;99.90
29917;DHT22;16786;49.466;11.068;2022-08-01T08:49:19;25.30;99.90
29917;DHT22;16786;49.466;11.068;2022-08-01T08:51:49;25.40;99.90
29917;DHT22;16786;49.466;11.068;2022-08-01T08:54:21;25.20;99.90
29917;DHT22;16786;49.466;11.068;2022-08-01T08:56:58;25.10;99.90
29917;DHT22;16786;49.466;11.068;2022-08-01T08:59:26;25.20;99.90
29917;DHT22;16786;49.466;11.068;2022-08-01T09:01:56;25.20;99.90
29917;DHT22;16786;49.466;11.068;2022-08-01T09:04:25;25.40;99.90
29917;DHT22;16786;49.466;11.068;2022-08-01T09:06:53;25.50;99.90
29917;DHT22;16786;49.466;11.068;2022-08-01T09:09:22;25.40;99.90
29917;DHT22;16786;49.466;11.068;2022-08-01T09:11:50;25.50;99.90
29917;DHT22;16786;49.466;11.068;2022-08-01T09:14:25;25.60;99.90
29917;DHT22;16786;49.466;11.068;2022-08-01T09:22:12;25.80;99.90
29917;DHT22;16786;49.466;11.068;2022-08-01T09:24:41;25.50;99.90
29917;DHT22;16786;49.466;11.068;2022-08-01T09:27:20;25.70;99.90
29917;DHT22;16786;49.466;11.068;2022-08-01T09:29:50;25.50;99.90
29917;DHT22;16786;49.466;11.068;2022-08-01T09:32:30;25.30;99.90
29917;DHT22;16786;49.466;11.068;2022-08-01T09:35:34;25.10;99.90
29917;DHT22;16786;49.466;11.068;2022-08-01T09:38:22;25.10;99.90
29917;DHT22;16786;49.466;11.068;2022-08-01T09:40:53;25.10;99.90
29917;DHT22;16786;49.466;11.068;2022-08-01T09:43:26;25.10;99.90
29917;DHT22;16786;49.466;11.068;2022-08-01T09:45:55;25.30;99.90
29917;DHT22;16786;49.466;11.068;2022-08-01T09:48:25;25.50;99.90
29917;DHT22;16786;49.466;11.068;2022-08-01T09:50:57;25.70;99.90
29917;DHT22;16786;49.466;11.068;2022-08-01T09:53:47;25.90;99.90
29917;DHT22;16786;49.466;11.068;2022-08-01T09:56:20;25.90;99.90
29917;DHT22;16786;49.466;11.068;2022-08-01T09:58:56;25.90;99.90
29917;DHT22;16786;49.466;11.068;2022-08-01T10:01:41;26.00;99.90
29917;DHT22;16786;49.466;11.068;2022-08-01T10:06:43;26.10;99.90
29917;DHT22;16786;49.466;11.068;2022-08-01T10:09:13;26.20;99.90
29917;DHT22;16786;49.466;11.068;2022-08-01T10:11:44;26.30;99.90
29917;DHT22;16786;49.466;11.068;2022-08-01T10:14:12;26.40;99.90
29917;DHT22;16786;49.466;11.068;2022-08-01T10:16:45;26.80;99.90
29917;DHT22;16786;49.466;11.068;2022-08-01T10:19:22;27.10;99.90
29917;DHT22;16786;49.466;11.068;2022-08-01T10:21:52;27.00;99.90
29917;DHT22;16786;49.466;11.068;2022-08-01T10:24:27;27.30;99.90
29917;DHT22;16786;49.466;11.068;2022-08-01T10:26:58;27.30;99.90
29917;DHT22;16786;49.466;11.068;2022-08-01T10:29:56;27.00;99.90
29917;DHT22;16786;49.466;11.068;2022-08-01T10:32:35;26.60;99.90
29917;DHT22;16786;49.466;11.068;2022-08-01T10:35:06;26.80;99.90
29917;DHT22;16786;49.466;11.068;2022-08-01T10:37:41;26.50;99.90
29917;DHT22;16786;49.466;11.068;2022-08-01T10:40:18;26.40;99.90
29917;DHT22;16786;49.466;11.068;2022-08-01T10:43:03;26.70;99.90
29917;DHT22;16786;49.466;11.068;2022-08-01T10:45:30;26.90;99.90
29917;DHT22;16786;49.466;11.068;2022-08-01T10:48:16;26.90;99.90
29917;DHT22;16786;49.466;11.068;2022-08-01T10:50:49;27.10;99.90
29917;DHT22;16786;49.466;11.068;2022-08-01T10:53:21;27.20;99.90
29917;DHT22;16786;49.466;11.068;2022-08-01T10:56:08;27.50;99.90
29917;DHT22;16786;49.466;11.068;2022-08-01T10:58:43;27.80;99.90
29917;DHT22;16786;49.466;11.068;2022-08-01T11:01:26;28.30;99.90
29917;DHT22;16786;49.466;11.068;2022-08-01T11:04:13;28.50;99.90
29917;DHT22;16786;49.466;11.068;2022-08-01T11:07:08;28.90;99.90
29917;DHT22;16786;49.466;11.068;2022-08-01T11:09:46;28.90;99.90
29917;DHT22;16786;49.466;11.068;2022-08-01T11:12:18;28.70;99.90
29917;DHT22;16786;49.466;11.068;2022-08-01T11:20:11;27.80;99.90
29917;DHT22;16786;49.466;11.068;2022-08-01T11:28:26;28.20;99.90
29917;DHT22;16786;49.466;11.068;2022-08-01T11:41:40;28.60;99.90
29917;DHT22;16786;49.466;11.068;2022-08-01T11:44:19;28.60;99.90
29917;DHT22;16786;49.466;11.068;2022-08-01T11:52:19;29.20;99.90
29917;DHT22;16786;49.466;11.068;2022-08-01T11:57:23;29.00;99.90
29917;DHT22;16786;49.466;11.068;2022-08-01T12:00:17;29.10;99.90
29917;DHT22;16786;49.466;11.068;2022-08-01T12:02:57;29.30;99.90
29917;DHT22;16786;49.466;11.068;2022-08-01T12:05:30;28.50;99.90
29917;DHT22;16786;49.466;11.068;2022-08-01T12:07:59;28.40;99.90
29917;DHT22;16786;49.466;11.068;2022-08-01T12:10:30;28.50;99.90
29917;DHT22;16786;49.466;11.068;2022-08-01T12:13:13;28.70;99.90
29917;DHT22;16786;49.466;11.068;2022-08-01T12:15:40;28.70;99.90
29917;DHT22;16786;49.466;11.068;2022-08-01T12:18:08;28.90;99.90
29917;DHT22;16786;49.466;11.068;2022-08-01T12:20:37;28.70;99.90
29917;DHT22;16786;49.466;11.068;2022-08-01T12:23:20;28.60;99.90
29917;DHT22;16786;49.466;11.068;2022-08-01T12:25:51;28.80;99.90
29917;DHT22;16786;49.466;11.068;2022-08-01T12:28:19;29.00;99.90
29917;DHT22;16786;49.466;11.068;2022-08-01T12:30:48;30.10;99.90
29917;DHT22;16786;49.466;11.068;2022-08-01T12:33:19;30.40;99.90
29917;DHT22;16786;49.466;11.068;2022-08-01T12:35:48;30.40;99.90
29917;DHT22;16786;49.466;11.068;2022-08-01T12:38:21;31.20;99.90
29917;DHT22;16786;49.466;11.068;2022-08-01T12:40:57;31.90;99.90
29917;DHT22;16786;49.466;11.068;2022-08-01T12:43:25;32.50;99.90
29917;DHT22;16786;49.466;11.068;2022-08-01T12:45:57;32.90;99.90
29917;DHT22;16786;49.466;11.068;2022-08-01T12:48:26;33.50;99.60
29917;DHT22;16786;49.466;11.068;2022-08-01T12:50:55;33.60;98.50
29917;DHT22;16786;49.466;11.068;2022-08-01T12:53:25;34.10;97.70
29917;DHT22;16786;49.466;11.068;2022-08-01T12:56:08;34.30;96.50
29917;DHT22;16786;49.466;11.068;2022-08-01T12:58:38;34.50;95.50
29917;DHT22;16786;49.466;11.068;2022-08-01T13:01:08;33.80;94.10
29917;DHT22;16786;49.466;11.068;2022-08-01T13:03:36;33.50;93.70
29917;DHT22;16786;49.466;11.068;2022-08-01T13:06:15;33.10;93.30
29917;DHT22;16786;49.466;11.068;2022-08-01T13:08:44;32.60;93.10
29917;DHT22;16786;49.466;11.068;2022-08-01T13:11:14;31.90;93.80
29917;DHT22;16786;49.466;11.068;2022-08-01T13:13:44;30.90;96.30
29917;DHT22;16786;49.466;11.068;2022-08-01T13:16:19;30.50;98.40
29917;DHT22;16786;49.466;11.068;2022-08-01T13:19:05;30.20;98.60
29917;DHT22;16786;49.466;11.068;2022-08-01T13:21:33;30.20;99.30
29917;DHT22;16786;49.466;11.068;2022-08-01T13:24:27;29.80;99.90
29917;DHT22;16786;49.466;11.068;2022-08-01T13:27:00;29.50;99.90
29917;DHT22;16786;49.466;11.068;2022-08-01T13:29:39;29.50;99.90
29917;DHT22;16786;49.466;11.068;2022-08-01T13:32:20;30.00;99.90
29917;DHT22;16786;49.466;11.068;2022-08-01T13:35:04;30.20;99.90
29917;DHT22;16786;49.466;11.068;2022-08-01T13:37:32;30.00;99.70
29917;DHT22;16786;49.466;11.068;2022-08-01T13:39:59;29.70;99.70
29917;DHT22;16786;49.466;11.068;2022-08-01T13:42:27;29.80;99.70
29917;DHT22;16786;49.466;11.068;2022-08-01T13:44:56;30.60;99.70
29917;DHT22;16786;49.466;11.068;2022-08-01T13:47:23;31.20;98.30
29917;DHT22;16786;49.466;11.068;2022-08-01T13:50:01;31.30;98.10
29917;DHT22;16786;49.466;11.068;2022-08-01T13:52:30;31.80;98.10
29917;DHT22;16786;49.466;11.068;2022-08-01T13:54:58;31.80;97.90
29917;DHT22;16786;49.466;11.068;2022-08-01T13:57:27;31.90;97.60
29917;DHT22;16786;49.466;11.068;2022-08-01T14:00:07;32.10;96.90
29917;DHT22;16786;49.466;11.068;2022-08-01T14:02:38;32.70;96.50
29917;DHT22;16786;49.466;11.068;2022-08-01T14:05:06;33.00;95.50
29917;DHT22;16786;49.466;11.068;2022-08-01T14:07:33;35.20;94.10
29917;DHT22;16786;49.466;11.068;2022-08-01T14:10:04;35.60;91.40
29917;DHT22;16786;49.466;11.068;2022-08-01T14:12:47;34.60;91.00
29917;DHT22;16786;49.466;11.068;2022-08-01T14:15:16;34.20;91.50
29917;DHT22;16786;49.466;11.068;2022-08-01T14:18:03;33.70;91.30
29917;DHT22;16786;49.466;11.068;2022-08-01T14:20:33;34.00;91.20
29917;DHT22;16786;49.466;11.068;2022-08-01T14:23:01;33.80;91.10
29917;DHT22;16786;49.466;11.068;2022-08-01T14:25:28;33.50;90.90
29917;DHT22;16786;49.466;11.068;2022-08-01T14:28:16;33.90;90.80
29917;DHT22;16786;49.466;11.068;2022-08-01T14:30:44;33.90;90.00
29917;DHT22;16786;49.466;11.068;2022-08-01T14:33:12;33.80;90.30
29917;DHT22;16786;49.466;11.068;2022-08-01T14:35:40;33.50;90.30
29917;DHT22;16786;49.466;11.068;2022-08-01T14:38:27;34.50;89.80
29917;DHT22;16786;49.466;11.068;2022-08-01T14:40:59;35.60;86.10
29917;DHT22;16786;49.466;11.068;2022-08-01T14:43:27;34.90;86.60
29917;DHT22;16786;49.466;11.068;2022-08-01T14:46:00;35.10;86.80
29917;DHT22;16786;49.466;11.068;2022-08-01T14:48:28;36.30;85.60
29917;DHT22;16786;49.466;11.068;2022-08-01T14:50:57;36.70;84.50
29917;DHT22;16786;49.466;11.068;2022-08-01T14:53:24;37.20;81.10
29917;DHT22;16786;49.466;11.068;2022-08-01T14:55:51;36.60;80.60
29917;DHT22;16786;49.466;11.068;2022-08-01T14:58:19;36.60;81.00
29917;DHT22;16786;49.466;11.068;2022-08-01T15:00:46;36.00;80.80
29917;DHT22;16786;49.466;11.068;2022-08-01T15:03:14;36.00;81.10
29917;DHT22;16786;49.466;11.068;2022-08-01T15:05:41;35.90;81.90
29917;DHT22;16786;49.466;11.068;2022-08-01T15:08:08;35.30;82.70
29917;DHT22;16786;49.466;11.068;2022-08-01T15:10:36;34.60;83.00
29917;DHT22;16786;49.466;11.068;2022-08-01T15:13:03;34.80;82.20
29917;DHT22;16786;49.466;11.068;2022-08-01T15:15:30;34.70;82.40
29917;DHT22;16786;49.466;11.068;2022-08-01T15:17:58;34.30;81.80
29917;DHT22;16786;49.466;11.068;2022-08-01T15:20:25;33.60;82.60
29917;DHT22;16786;49.466;11.068;2022-08-01T15:22:54;33.60;83.30
29917;DHT22;16786;49.466;11.068;2022-08-01T15:25:21;35.20;81.40
29917;DHT22;16786;49.466;11.068;2022-08-01T15:27:49;34.80;81.30
29917;DHT22;16786;49.466;11.068;2022-08-01T15:30:16;34.90;80.90
29917;DHT22;16786;49.466;11.068;2022-08-01T15:32:53;35.40;79.60
29917;DHT22;16786;49.466;11.068;2022-08-01T15:35:20;36.60;77.30
29917;DHT22;16786;49.466;11.068;2022-08-01T15:37:48;37.00;75.90
29917;DHT22;16786;49.466;11.068;2022-08-01T15:40:15;36.60;75.70
29917;DHT22;16786;49.466;11.068;2022-08-01T15:42:43;36.10;76.20
29917;DHT22;16786;49.466;11.068;2022-08-01T15:45:11;36.50;76.00
29917;DHT22;16786;49.466;11.068;2022-08-01T15:48:03;38.10;73.70
29917;DHT22;16786;49.466;11.068;2022-08-01T15:50:30;40.00;70.30
29917;DHT22;16786;49.466;11.068;2022-08-01T15:52:57;40.90;67.40
29917;DHT22;16786;49.466;11.068;2022-08-01T15:55:25;40.90;66.70
29917;DHT22;16786;49.466;11.068;2022-08-01T15:57:52;39.70;69.30
29917;DHT22;16786;49.466;11.068;2022-08-01T16:00:20;38.90;70.60
29917;DHT22;16786;49.466;11.068;2022-08-01T16:02:47;38.40;71.80
29917;DHT22;16786;49.466;11.068;2022-08-01T16:05:15;37.80;72.80
29917;DHT22;16786;49.466;11.068;2022-08-01T16:07:46;37.50;72.30
29917;DHT22;16786;49.466;11.068;2022-08-01T16:10:28;37.30;71.80
29917;DHT22;16786;49.466;11.068;2022-08-01T16:12:56;37.40;71.30
29917;DHT22;16786;49.466;11.068;2022-08-01T16:15:26;36.70;71.90
29917;DHT22;16786;49.466;11.068;2022-08-01T16:18:06;35.90;73.50
29917;DHT22;16786;49.466;11.068;2022-08-01T16:20:34;35.50;75.20
29917;DHT22;16786;49.466;11.068;2022-08-01T16:23:08;34.90;76.10
29917;DHT22;16786;49.466;11.068;2022-08-01T16:25:36;34.10;77.90
29917;DHT22;16786;49.466;11.068;2022-08-01T16:28:04;33.30;79.60
29917;DHT22;16786;49.466;11.068;2022-08-01T16:30:31;32.90;81.10
29917;DHT22;16786;49.466;11.068;2022-08-01T16:32:59;32.50;83.40